sensor_id;sensor_type;location;lat;lon;timestamp;pressure;altitude;pressure_sealevel;temperature;humidity
25084;BME280;13075;55.682;37.564;2023-02-16T00:00:28;100392.81;;;2.86;100.00
25084;BME280;13075;55.682;37.564;2023-02-16T00:02:54;100398.59;;;2.80;100.00
25084;BME280;13075;55.682;37.564;2023-02-16T00:05:26;100391.97;;;2.65;100.00
25084;BME280;13075;55.682;37.564;2023-02-16T00:07:52;100397.56;;;2.92;100.00
25084;BME280;13075;55.682;37.564;2023-02-16T00:10:19;100391.28;;;2.84;100.00
25084;BME280;13075;55.682;37.564;2023-02-16T00:12:44;100394.16;;;3.01;100.00
25084;BME280;13075;55.682;37.564;2023-02-16T00:15:29;100400.34;;;2.91;100.00
25084;BME280;13075;55.682;37.564;2023-02-16T00:17:56;100396.38;;;2.76;100.00
25084;BME280;13075;55.682;37.564;2023-02-16T00:20:22;100392.47;;;2.59;100.00
25084;BME280;13075;55.682;37.564;2023-02-16T00:22:48;100396.91;;;2.79;100.00
25084;BME280;13075;55.682;37.564;2023-02-16T00:25:14;100389.97;;;2.99;100.00
25084;BME280;13075;55.682;37.564;2023-02-16T00:27:39;100389.53;;;3.24;100.00
25084;BME280;13075;55.682;37.564;2023-02-16T00:30:16;100390.47;;;2.93;100.00
25084;BME280;13075;55.682;37.564;2023-02-16T00:32:42;100384.25;;;2.73;100.00
25084;BME280;13075;55.682;37.564;2023-02-16T00:35:17;100387.09;;;2.40;100.00
25084;BME280;13075;55.682;37.564;2023-02-16T00:37:43;100385.16;;;2.63;100.00
25084;BME280;13075;55.682;37.564;2023-02-16T00:40:10;100396.66;;;2.41;100.00
25084;BME280;13075;55.682;37.564;2023-02-16T00:42:36;100385.25;;;2.61;100.00
25084;BME280;13075;55.682;37.564;2023-02-16T00:45:03;100382.16;;;2.56;100.00
25084;BME280;13075;55.682;37.564;2023-02-16T00:47:36;100384.75;;;2.67;100.00
25084;BME280;13075;55.682;37.564;2023-02-16T00:50:44;100379.00;;;3.03;100.00
25084;BME280;13075;55.682;37.564;2023-02-16T00:52:51;100383.72;;;2.79;100.00
25084;BME280;13075;55.682;37.564;2023-02-16T00:55:22;100387.09;;;2.40;100.00
25084;BME280;13075;55.682;37.564;2023-02-16T01:02:57;100382.94;;;2.88;100.00
25084;BME280;13075;55.682;37.564;2023-02-16T01:05:24;100379.06;;;2.51;100.00
25084;BME280;13075;55.682;37.564;2023-02-16T01:07:50;100378.78;;;2.44;100.00
25084;BME280;13075;55.682;37.564;2023-02-16T01:10:36;100376.78;;;2.58;100.00
25084;BME280;13075;55.682;37.564;2023-02-16T01:13:21;100377.34;;;2.61;100.00
25084;BME280;13075;55.682;37.564;2023-02-16T01:15:47;100379.66;;;2.75;100.00
25084;BME280;13075;55.682;37.564;2023-02-16T01:18:14;100376.63;;;2.80;100.00
25084;BME280;13075;55.682;37.564;2023-02-16T01:20:41;100389.41;;;3.05;100.00
25084;BME280;13075;55.682;37.564;2023-02-16T01:23:08;100387.84;;;3.23;100.00
25084;BME280;13075;55.682;37.564;2023-02-16T01:25:35;100388.09;;;3.20;100.00
25084;BME280;13075;55.682;37.564;2023-02-16T01:28:01;100390.34;;;2.94;100.00
25084;BME280;13075;55.682;37.564;2023-02-16T01:30:26;100389.88;;;2.89;100.00
25084;BME280;13075;55.682;37.564;2023-02-16T01:32:52;100385.22;;;2.72;100.00
25084;BME280;13075;55.682;37.564;2023-02-16T01:35:19;100380.63;;;2.53;100.00
25084;BME280;13075;55.682;37.564;2023-02-16T01:37:46;100375.88;;;2.47;100.00
25084;BME280;13075;55.682;37.564;2023-02-16T01:45:33;100387.88;;;2.40;100.00
25084;BME280;13075;55.682;37.564;2023-02-16T01:48:03;100395.31;;;2.46;100.00
25084;BME280;13075;55.682;37.564;2023-02-16T01:50:44;100395.38;;;2.77;100.00
25084;BME280;13075;55.682;37.564;2023-02-16T01:53:30;100397.00;;;2.47;100.00
25084;BME280;13075;55.682;37.564;2023-02-16T01:56:05;100397.88;;;2.37;100.00
25084;BME280;13075;55.682;37.564;2023-02-16T01:58:47;100396.28;;;2.66;100.00
25084;BME280;13075;55.682;37.564;2023-02-16T02:01:40;100393.81;;;2.95;100.00
25084;BME280;13075;55.682;37.564;2023-02-16T02:04:28;100393.09;;;3.13;100.00
25084;BME280;13075;55.682;37.564;2023-02-16T02:07:27;100389.34;;;2.86;100.00
25084;BME280;13075;55.682;37.564;2023-02-16T02:10:17;100397.91;;;2.78;100.00
25084;BME280;13075;55.682;37.564;2023-02-16T02:13:08;100400.41;;;2.80;100.00
25084;BME280;13075;55.682;37.564;2023-02-16T02:15:37;100397.19;;;2.76;100.00
25084;BME280;13075;55.682;37.564;2023-02-16T02:18:04;100393.78;;;2.44;100.00
25084;BME280;13075;55.682;37.564;2023-02-16T02:32:48;100385.69;;;3.07;100.00
25084;BME280;13075;55.682;37.564;2023-02-16T02:38:11;100386.25;;;2.81;100.00
25084;BME280;13075;55.682;37.564;2023-02-16T02:41:07;100395.03;;;3.11;100.00
25084;BME280;13075;55.682;37.564;2023-02-16T02:44:00;100397.94;;;3.08;100.00
25084;BME280;13075;55.682;37.564;2023-02-16T02:46:34;100401.31;;;2.69;100.00
25084;BME280;13075;55.682;37.564;2023-02-16T02:49:02;100399.50;;;2.49;100.00
25084;BME280;13075;55.682;37.564;2023-02-16T02:51:28;100398.34;;;2.63;100.00
25084;BME280;13075;55.682;37.564;2023-02-16T02:56:58;100409.53;;;2.34;100.00
25084;BME280;13075;55.682;37.564;2023-02-16T02:59:48;100411.78;;;2.39;100.00
25084;BME280;13075;55.682;37.564;2023-02-16T03:02:35;100409.56;;;2.23;100.00
25084;BME280;13075;55.682;37.564;2023-02-16T03:05:04;100405.63;;;2.49;100.00
25084;BME280;13075;55.682;37.564;2023-02-16T03:07:32;100408.72;;;2.23;100.00
25084;BME280;13075;55.682;37.564;2023-02-16T03:10:14;100390.22;;;2.55;100.00
25084;BME280;13075;55.682;37.564;2023-02-16T03:13:00;100402.41;;;2.67;100.00
25084;BME280;13075;55.682;37.564;2023-02-16T03:15:27;100397.00;;;2.89;100.00
25084;BME280;13075;55.682;37.564;2023-02-16T03:17:55;100396.06;;;2.99;100.00
25084;BME280;13075;55.682;37.564;2023-02-16T03:20:41;100385.84;;;2.65;100.00
25084;BME280;13075;55.682;37.564;2023-02-16T03:23:26;100388.50;;;2.44;100.00
25084;BME280;13075;55.682;37.564;2023-02-16T03:26:12;100401.91;;;2.20;100.00
25084;BME280;13075;55.682;37.564;2023-02-16T03:28:58;100382.63;;;2.61;100.00
25084;BME280;13075;55.682;37.564;2023-02-16T03:31:41;100384.09;;;2.54;100.00
25084;BME280;13075;55.682;37.564;2023-02-16T03:34:07;100377.63;;;2.58;100.00
25084;BME280;13075;55.682;37.564;2023-02-16T03:36:37;100386.75;;;2.75;100.00
25084;BME280;13075;55.682;37.564;2023-02-16T03:39:05;100394.09;;;2.71;100.00
25084;BME280;13075;55.682;37.564;2023-02-16T03:41:33;100396.09;;;2.37;100.00
25084;BME280;13075;55.682;37.564;2023-02-16T03:43:59;100394.66;;;2.54;100.00
25084;BME280;13075;55.682;37.564;2023-02-16T03:46:25;100385.22;;;2.72;100.00
25084;BME280;13075;55.682;37.564;2023-02-16T03:48:51;100384.34;;;2.51;100.00
25084;BME280;13075;55.682;37.564;2023-02-16T03:51:16;100376.97;;;2.86;100.00
25084;BME280;13075;55.682;37.564;2023-02-16T03:53:42;100383.84;;;2.98;100.00
25084;BME280;13075;55.682;37.564;2023-02-16T03:56:08;100384.91;;;2.66;100.00
25084;BME280;13075;55.682;37.564;2023-02-16T03:58:33;100378.56;;;2.78;100.00
25084;BME280;13075;55.682;37.564;2023-02-16T04:00:59;100378.56;;;2.78;100.00
25084;BME280;13075;55.682;37.564;2023-02-16T04:03:25;100378.78;;;2.44;100.00
25084;BME280;13075;55.682;37.564;2023-02-16T04:05:51;100379.97;;;2.40;100.00
25084;BME280;13075;55.682;37.564;2023-02-16T04:08:16;100384.59;;;2.27;100.00
25084;BME280;13075;55.682;37.564;2023-02-16T04:10:43;100369.28;;;2.21;100.00
25084;BME280;13075;55.682;37.564;2023-02-16T04:13:09;100365.69;;;2.43;100.00
25084;BME280;13075;55.682;37.564;2023-02-16T04:15:34;100367.22;;;2.45;100.00
25084;BME280;13075;55.682;37.564;2023-02-16T04:18:00;100373.25;;;2.68;100.00
25084;BME280;13075;55.682;37.564;2023-02-16T04:20:29;100374.13;;;2.58;100.00
25084;BME280;13075;55.682;37.564;2023-02-16T04:22:56;100379.63;;;2.66;100.00
25084;BME280;13075;55.682;37.564;2023-02-16T04:25:23;100375.66;;;2.81;100.00
25084;BME280;13075;55.682;37.564;2023-02-16T04:27:50;100374.13;;;2.58;100.00
25084;BME280;13075;55.682;37.564;2023-02-16T04:30:19;100369.41;;;2.61;100.00
25084;BME280;13075;55.682;37.564;2023-02-16T04:32:45;100374.94;;;2.79;100.00
25084;BME280;13075;55.682;37.564;2023-02-16T04:35:10;100375.94;;;2.57;100.00
25084;BME280;13075;55.682;37.564;2023-02-16T04:37:36;100373.34;;;2.67;100.00
25084;BME280;13075;55.682;37.564;2023-02-16T04:40:03;100369.56;;;2.60;100.00
25084;BME280;13075;55.682;37.564;2023-02-16T04:42:29;100360.28;;;2.44;100.00
25084;BME280;13075;55.682;37.564;2023-02-16T04:44:54;100363.03;;;2.64;100.00
25084;BME280;13075;55.682;37.564;2023-02-16T04:47:20;100364.56;;;2.25;100.00
25084;BME280;13075;55.682;37.564;2023-02-16T04:49:47;100361.47;;;2.82;100.00
25084;BME280;13075;55.682;37.564;2023-02-16T04:52:13;100360.09;;;2.57;100.00
25084;BME280;13075;55.682;37.564;2023-02-16T04:54:38;100370.66;;;2.57;100.00
25084;BME280;13075;55.682;37.564;2023-02-16T04:57:04;100369.59;;;2.48;100.00
25084;BME280;13075;55.682;37.564;2023-02-16T04:59:30;100365.56;;;2.65;100.00
25084;BME280;13075;55.682;37.564;2023-02-16T05:01:56;100371.28;;;2.49;100.00
25084;BME280;13075;55.682;37.564;2023-02-16T05:04:23;100373.78;;;2.30;100.00
25084;BME280;13075;55.682;37.564;2023-02-16T05:06:49;100371.75;;;2.34;100.00
25084;BME280;13075;55.682;37.564;2023-02-16T05:09:14;100370.16;;;2.63;100.00
25084;BME280;13075;55.682;37.564;2023-02-16T05:11:40;100375.22;;;2.34;100.00
25084;BME280;13075;55.682;37.564;2023-02-16T05:14:28;100378.28;;;2.19;100.00
25084;BME280;13075;55.682;37.564;2023-02-16T05:17:08;100376.00;;;2.46;100.00
25084;BME280;13075;55.682;37.564;2023-02-16T05:19:34;100379.66;;;2.75;100.00
25084;BME280;13075;55.682;37.564;2023-02-16T05:22:00;100374.00;;;2.59;100.00
25084;BME280;13075;55.682;37.564;2023-02-16T05:24:26;100378.56;;;2.57;100.00
25084;BME280;13075;55.682;37.564;2023-02-16T05:26:51;100385.69;;;2.25;100.00
25084;BME280;13075;55.682;37.564;2023-02-16T05:29:17;100388.50;;;2.12;100.00
25084;BME280;13075;55.682;37.564;2023-02-16T05:31:43;100395.56;;;1.69;100.00
25084;BME280;13075;55.682;37.564;2023-02-16T05:34:08;100399.63;;;1.84;100.00
25084;BME280;13075;55.682;37.564;2023-02-16T05:36:34;100394.88;;;1.67;100.00
25084;BME280;13075;55.682;37.564;2023-02-16T05:39:00;100399.78;;;1.60;100.00
25084;BME280;13075;55.682;37.564;2023-02-16T05:41:25;100391.84;;;1.82;100.00
25084;BME280;13075;55.682;37.564;2023-02-16T05:43:55;100388.53;;;1.58;100.00
25084;BME280;13075;55.682;37.564;2023-02-16T05:46:22;100394.81;;;1.89;100.00
25084;BME280;13075;55.682;37.564;2023-02-16T05:48:48;100389.91;;;1.73;100.00
25084;BME280;13075;55.682;37.564;2023-02-16T05:51:14;100382.25;;;2.45;100.00
25084;BME280;13075;55.682;37.564;2023-02-16T05:53:40;100382.06;;;2.37;100.00
25084;BME280;13075;55.682;37.564;2023-02-16T05:56:06;100381.44;;;2.33;100.00
25084;BME280;13075;55.682;37.564;2023-02-16T05:58:31;100388.00;;;2.50;100.00
25084;BME280;13075;55.682;37.564;2023-02-16T06:00:57;100390.25;;;2.75;100.00
25084;BME280;13075;55.682;37.564;2023-02-16T06:03:23;100389.56;;;2.21;100.00
25084;BME280;13075;55.682;37.564;2023-02-16T06:05:58;100389.81;;;2.07;100.00
25084;BME280;13075;55.682;37.564;2023-02-16T06:08:24;100392.06;;;1.91;100.00
25084;BME280;13075;55.682;37.564;2023-02-16T06:10:50;100394.03;;;2.09;100.00
25084;BME280;13075;55.682;37.564;2023-02-16T06:13:17;100398.53;;;1.86;100.00
25084;BME280;13075;55.682;37.564;2023-02-16T06:15:43;100387.81;;;1.56;100.00
25084;BME280;13075;55.682;37.564;2023-02-16T06:18:09;100386.81;;;1.68;100.00
25084;BME280;13075;55.682;37.564;2023-02-16T06:20:39;100375.00;;;1.95;100.00
25084;BME280;13075;55.682;37.564;2023-02-16T06:23:07;100371.28;;;2.29;100.00
25084;BME280;13075;55.682;37.564;2023-02-16T06:25:33;100386.78;;;1.91;100.00
25084;BME280;13075;55.682;37.564;2023-02-16T06:27:59;100388.72;;;2.20;100.00
25084;BME280;13075;55.682;37.564;2023-02-16T06:30:25;100382.59;;;2.20;100.00
25084;BME280;13075;55.682;37.564;2023-02-16T06:32:50;100389.25;;;2.03;100.00
25084;BME280;13075;55.682;37.564;2023-02-16T06:35:16;100380.00;;;2.09;100.00
25084;BME280;13075;55.682;37.564;2023-02-16T06:37:42;100381.38;;;1.81;100.00
25084;BME280;13075;55.682;37.564;2023-02-16T06:40:09;100374.69;;;1.88;100.00
25084;BME280;13075;55.682;37.564;2023-02-16T06:42:35;100377.16;;;2.01;100.00
25084;BME280;13075;55.682;37.564;2023-02-16T06:45:01;100379.50;;;1.83;100.00
25084;BME280;13075;55.682;37.564;2023-02-16T06:47:27;100380.78;;;2.20;100.00
25084;BME280;13075;55.682;37.564;2023-02-16T06:49:53;100370.72;;;2.46;100.00
25084;BME280;13075;55.682;37.564;2023-02-16T06:52:18;100368.91;;;2.46;100.00
25084;BME280;13075;55.682;37.564;2023-02-16T06:54:44;100373.88;;;2.40;100.00
25084;BME280;13075;55.682;37.564;2023-02-16T06:57:09;100374.09;;;2.16;100.00
25084;BME280;13075;55.682;37.564;2023-02-16T06:59:35;100373.09;;;2.49;100.00
25084;BME280;13075;55.682;37.564;2023-02-16T07:02:01;100382.63;;;1.66;100.00
25084;BME280;13075;55.682;37.564;2023-02-16T07:04:27;100379.72;;;2.43;100.00
25084;BME280;13075;55.682;37.564;2023-02-16T07:06:53;100374.69;;;2.61;100.00
25084;BME280;13075;55.682;37.564;2023-02-16T07:09:18;100372.13;;;2.29;100.00
25084;BME280;13075;55.682;37.564;2023-02-16T07:11:44;100375.44;;;2.42;100.00
25084;BME280;13075;55.682;37.564;2023-02-16T07:14:10;100368.91;;;2.46;100.00
25084;BME280;13075;55.682;37.564;2023-02-16T07:16:35;100369.47;;;2.91;100.00
25084;BME280;13075;55.682;37.564;2023-02-16T07:19:01;100373.56;;;3.05;100.00
25084;BME280;13075;55.682;37.564;2023-02-16T07:21:26;100361.88;;;3.38;100.00
25084;BME280;13075;55.682;37.564;2023-02-16T07:23:52;100372.63;;;3.15;100.00
25084;BME280;13075;55.682;37.564;2023-02-16T07:26:18;100365.47;;;3.27;100.00
25084;BME280;13075;55.682;37.564;2023-02-16T07:28:43;100372.63;;;3.15;100.00
25084;BME280;13075;55.682;37.564;2023-02-16T07:31:11;100368.75;;;2.89;100.00
25084;BME280;13075;55.682;37.564;2023-02-16T07:33:38;100365.38;;;2.57;100.00
25084;BME280;13075;55.682;37.564;2023-02-16T07:36:04;100364.28;;;2.60;100.00
25084;BME280;13075;55.682;37.564;2023-02-16T07:38:31;100357.63;;;2.86;100.00
25084;BME280;13075;55.682;37.564;2023-02-16T07:40:57;100364.09;;;3.02;100.00
25084;BME280;13075;55.682;37.564;2023-02-16T07:43:24;100367.13;;;3.28;100.00
25084;BME280;13075;55.682;37.564;2023-02-16T07:45:50;100364.75;;;2.95;100.00
25084;BME280;13075;55.682;37.564;2023-02-16T07:48:16;100362.66;;;3.19;100.00
25084;BME280;13075;55.682;37.564;2023-02-16T07:50:42;100370.97;;;3.14;100.00
25084;BME280;13075;55.682;37.564;2023-02-16T07:53:08;100362.09;;;3.65;100.00
25084;BME280;13075;55.682;37.564;2023-02-16T07:55:44;100354.78;;;4.07;100.00
25084;BME280;13075;55.682;37.564;2023-02-16T07:58:11;100361.88;;;3.38;100.00
25084;BME280;13075;55.682;37.564;2023-02-16T08:01:11;100354.75;;;4.16;100.00
25084;BME280;13075;55.682;37.564;2023-02-16T08:03:38;100349.47;;;4.16;100.00
25084;BME280;13075;55.682;37.564;2023-02-16T08:06:05;100352.13;;;3.97;100.00
25084;BME280;13075;55.682;37.564;2023-02-16T08:08:31;100360.13;;;3.57;100.00
25084;BME280;13075;55.682;37.564;2023-02-16T08:10:56;100358.34;;;3.77;100.00
25084;BME280;13075;55.682;37.564;2023-02-16T08:13:22;100350.88;;;4.20;100.00
25084;BME280;13075;55.682;37.564;2023-02-16T08:15:48;100357.53;;;3.76;100.00
25084;BME280;13075;55.682;37.564;2023-02-16T08:18:14;100349.63;;;4.15;100.00
25084;BME280;13075;55.682;37.564;2023-02-16T08:20:39;100345.69;;;4.28;100.00
25084;BME280;13075;55.682;37.564;2023-02-16T08:23:05;100349.47;;;4.35;100.00
25084;BME280;13075;55.682;37.564;2023-02-16T08:25:33;100353.78;;;4.08;100.00
25084;BME280;13075;55.682;37.564;2023-02-16T08:27:58;100343.72;;;4.50;100.00
25084;BME280;13075;55.682;37.564;2023-02-16T08:30:25;100353.94;;;4.35;94.82
25084;BME280;13075;55.682;37.564;2023-02-16T08:32:51;100348.44;;;4.75;94.82
25084;BME280;13075;55.682;37.564;2023-02-16T08:35:17;100353.03;;;4.82;92.83
25084;BME280;13075;55.682;37.564;2023-02-16T08:37:43;100343.72;;;4.59;97.23
25084;BME280;13075;55.682;37.564;2023-02-16T08:40:09;100344.72;;;4.39;97.38
25084;BME280;13075;55.682;37.564;2023-02-16T08:42:36;100342.34;;;4.46;97.40
25084;BME280;13075;55.682;37.564;2023-02-16T08:45:03;100350.16;;;4.37;100.00
25084;BME280;13075;55.682;37.564;2023-02-16T08:47:30;100341.78;;;4.52;97.18
25084;BME280;13075;55.682;37.564;2023-02-16T08:49:55;100340.38;;;4.57;98.23
25084;BME280;13075;55.682;37.564;2023-02-16T08:52:21;100337.75;;;4.28;97.67
25084;BME280;13075;55.682;37.564;2023-02-16T08:54:46;100333.31;;;4.38;96.07
25084;BME280;13075;55.682;37.564;2023-02-16T08:57:12;100343.91;;;4.38;98.50
25084;BME280;13075;55.682;37.564;2023-02-16T08:59:38;100344.72;;;4.29;100.00
25084;BME280;13075;55.682;37.564;2023-02-16T09:02:04;100335.38;;;4.35;98.84
25084;BME280;13075;55.682;37.564;2023-02-16T09:04:30;100343.47;;;4.24;100.00
25084;BME280;13075;55.682;37.564;2023-02-16T09:06:56;100336.06;;;4.47;98.61
25084;BME280;13075;55.682;37.564;2023-02-16T09:09:23;100340.56;;;4.27;100.00
25084;BME280;13075;55.682;37.564;2023-02-16T09:11:49;100340.97;;;4.22;100.00
25084;BME280;13075;55.682;37.564;2023-02-16T09:14:17;100339.25;;;4.60;97.15
25084;BME280;13075;55.682;37.564;2023-02-16T09:16:43;100330.16;;;4.72;98.16
25084;BME280;13075;55.682;37.564;2023-02-16T09:19:13;100326.00;;;4.60;98.98
25084;BME280;13075;55.682;37.564;2023-02-16T09:21:40;100327.66;;;4.80;97.31
25084;BME280;13075;55.682;37.564;2023-02-16T09:24:06;100327.56;;;4.53;96.55
25084;BME280;13075;55.682;37.564;2023-02-16T09:26:35;100320.81;;;4.77;94.22
25084;BME280;13075;55.682;37.564;2023-02-16T09:29:06;100323.41;;;5.51;84.33
25084;BME280;13075;55.682;37.564;2023-02-16T09:31:33;100324.31;;;5.87;75.55
25084;BME280;13075;55.682;37.564;2023-02-16T09:34:11;100316.19;;;6.41;70.89
25084;BME280;13075;55.682;37.564;2023-02-16T09:36:38;100312.88;;;6.21;72.49
25084;BME280;13075;55.682;37.564;2023-02-16T09:39:04;100310.88;;;6.41;70.04
25084;BME280;13075;55.682;37.564;2023-02-16T09:49:44;100319.09;;;4.95;78.24
25084;BME280;13075;55.682;37.564;2023-02-16T09:52:54;100309.28;;;5.06;77.38
25084;BME280;13075;55.682;37.564;2023-02-16T09:55:00;100318.41;;;5.48;71.36
25084;BME280;13075;55.682;37.564;2023-02-16T10:00:24;100315.25;;;5.08;76.40
25084;BME280;13075;55.682;37.564;2023-02-16T10:08:02;100307.53;;;4.02;73.62
25084;BME280;13075;55.682;37.564;2023-02-16T10:10:45;100314.38;;;4.05;75.77
25084;BME280;13075;55.682;37.564;2023-02-16T10:13:24;100315.91;;;4.07;74.98
25084;BME280;13075;55.682;37.564;2023-02-16T10:15:51;100309.34;;;4.11;78.02
25084;BME280;13075;55.682;37.564;2023-02-16T10:18:24;100313.88;;;3.52;77.26
25084;BME280;13075;55.682;37.564;2023-02-16T10:20:54;100307.63;;;3.62;74.97
25084;BME280;13075;55.682;37.564;2023-02-16T10:33:45;100301.53;;;3.81;79.77
25084;BME280;13075;55.682;37.564;2023-02-16T10:36:23;100298.91;;;3.71;78.64
25084;BME280;13075;55.682;37.564;2023-02-16T10:39:04;100296.53;;;3.78;76.22
25084;BME280;13075;55.682;37.564;2023-02-16T10:41:35;100306.81;;;4.00;74.61
25084;BME280;13075;55.682;37.564;2023-02-16T10:44:13;100306.25;;;3.68;74.55
25084;BME280;13075;55.682;37.564;2023-02-16T10:46:45;100306.63;;;3.44;82.93
25084;BME280;13075;55.682;37.564;2023-02-16T10:49:13;100305.41;;;3.48;81.61
25084;BME280;13075;55.682;37.564;2023-02-16T10:51:42;100315.13;;;3.48;81.64
25084;BME280;13075;55.682;37.564;2023-02-16T10:54:30;100293.88;;;3.88;78.29
25084;BME280;13075;55.682;37.564;2023-02-16T10:57:06;100303.75;;;3.86;76.74
25084;BME280;13075;55.682;37.564;2023-02-16T10:59:44;100291.19;;;3.59;77.04
25084;BME280;13075;55.682;37.564;2023-02-16T11:02:25;100303.97;;;3.35;77.36
25084;BME280;13075;55.682;37.564;2023-02-16T11:04:53;100308.41;;;2.94;82.84
25084;BME280;13075;55.682;37.564;2023-02-16T11:07:21;100302.72;;;3.39;78.76
25084;BME280;13075;55.682;37.564;2023-02-16T11:09:50;100304.34;;;3.21;80.28
25084;BME280;13075;55.682;37.564;2023-02-16T11:12:37;100303.81;;;3.27;76.33
25084;BME280;13075;55.682;37.564;2023-02-16T11:15:28;100301.66;;;3.01;82.87
25084;BME280;13075;55.682;37.564;2023-02-16T11:18:03;100299.22;;;3.38;83.32
25084;BME280;13075;55.682;37.564;2023-02-16T11:23:35;100289.84;;;3.15;80.29
25084;BME280;13075;55.682;37.564;2023-02-16T11:31:17;100293.25;;;3.36;75.46
25084;BME280;13075;55.682;37.564;2023-02-16T11:37:11;100286.59;;;4.18;64.83
25084;BME280;13075;55.682;37.564;2023-02-16T11:39:40;100283.22;;;4.45;63.56
25084;BME280;13075;55.682;37.564;2023-02-16T11:42:31;100289.84;;;4.68;56.14
25084;BME280;13075;55.682;37.564;2023-02-16T11:45:00;100280.75;;;4.24;57.82
25084;BME280;13075;55.682;37.564;2023-02-16T11:47:32;100282.69;;;4.32;58.36
25084;BME280;13075;55.682;37.564;2023-02-16T11:50:20;100277.28;;;4.70;58.83
25084;BME280;13075;55.682;37.564;2023-02-16T11:53:13;100279.94;;;4.80;58.06
25084;BME280;13075;55.682;37.564;2023-02-16T11:55:47;100289.09;;;4.39;60.31
25084;BME280;13075;55.682;37.564;2023-02-16T12:01:26;100272.06;;;4.51;62.11
25084;BME280;13075;55.682;37.564;2023-02-16T12:03:41;100280.47;;;4.08;60.23
25084;BME280;13075;55.682;37.564;2023-02-16T12:09:01;100275.63;;;4.04;62.13
25084;BME280;13075;55.682;37.564;2023-02-16T12:16:56;100280.75;;;4.05;66.55
25084;BME280;13075;55.682;37.564;2023-02-16T12:19:47;100276.59;;;3.93;66.44
25084;BME280;13075;55.682;37.564;2023-02-16T12:22:45;100282.56;;;3.38;66.81
25084;BME280;13075;55.682;37.564;2023-02-16T12:28:13;100280.22;;;3.63;69.75
25084;BME280;13075;55.682;37.564;2023-02-16T12:34:04;100274.03;;;3.34;74.79
25084;BME280;13075;55.682;37.564;2023-02-16T12:36:48;100284.63;;;3.44;73.84
25084;BME280;13075;55.682;37.564;2023-02-16T12:47:05;100297.03;;;2.43;81.90
25084;BME280;13075;55.682;37.564;2023-02-16T12:50:04;100289.66;;;2.97;78.52
25084;BME280;13075;55.682;37.564;2023-02-16T12:55:30;100304.09;;;2.93;79.19
25084;BME280;13075;55.682;37.564;2023-02-16T13:00:38;100303.25;;;2.93;73.64
25084;BME280;13075;55.682;37.564;2023-02-16T13:03:35;100289.03;;;3.14;72.41
25084;BME280;13075;55.682;37.564;2023-02-16T13:11:28;100292.31;;;3.56;67.28
25084;BME280;13075;55.682;37.564;2023-02-16T13:14:00;100297.56;;;3.37;68.27
25084;BME280;13075;55.682;37.564;2023-02-16T13:16:48;100293.09;;;2.88;66.17
25084;BME280;13075;55.682;37.564;2023-02-16T13:19:16;100297.16;;;2.62;71.81
25084;BME280;13075;55.682;37.564;2023-02-16T13:38:31;100287.00;;;3.37;64.78
25084;BME280;13075;55.682;37.564;2023-02-16T13:44:11;100283.41;;;3.48;61.81
25084;BME280;13075;55.682;37.564;2023-02-16T13:46:43;100297.06;;;3.13;64.34
25084;BME280;13075;55.682;37.564;2023-02-16T13:49:31;100294.50;;;2.92;65.21
25084;BME280;13075;55.682;37.564;2023-02-16T13:51:58;100290.13;;;3.12;65.36
25084;BME280;13075;55.682;37.564;2023-02-16T13:54:36;100284.84;;;3.12;63.60
25084;BME280;13075;55.682;37.564;2023-02-16T13:57:03;100286.38;;;2.84;66.76
25084;BME280;13075;55.682;37.564;2023-02-16T14:01:55;100290.56;;;2.87;67.98
25084;BME280;13075;55.682;37.564;2023-02-16T14:14:45;100281.53;;;2.89;66.13
25084;BME280;13075;55.682;37.564;2023-02-16T14:19:55;100290.94;;;3.12;64.48
25084;BME280;13075;55.682;37.564;2023-02-16T14:27:53;100294.34;;;1.81;76.29
25084;BME280;13075;55.682;37.564;2023-02-16T14:35:45;100302.44;;;1.68;88.61
25084;BME280;13075;55.682;37.564;2023-02-16T14:41:02;100306.41;;;0.98;99.16
25084;BME280;13075;55.682;37.564;2023-02-16T14:43:45;100308.09;;;1.53;94.29
25084;BME280;13075;55.682;37.564;2023-02-16T14:55:36;100306.72;;;1.80;100.00
25084;BME280;13075;55.682;37.564;2023-02-16T15:01:01;100311.75;;;1.41;100.00
25084;BME280;13075;55.682;37.564;2023-02-16T15:03:42;100303.25;;;1.80;100.00
25084;BME280;13075;55.682;37.564;2023-02-16T15:08:57;100303.44;;;1.56;100.00
25084;BME280;13075;55.682;37.564;2023-02-16T15:11:29;100306.16;;;1.98;100.00
25084;BME280;13075;55.682;37.564;2023-02-16T15:14:02;100297.72;;;1.83;100.00
25084;BME280;13075;55.682;37.564;2023-02-16T15:16:30;100310.09;;;1.71;100.00
25084;BME280;13075;55.682;37.564;2023-02-16T15:18:57;100298.91;;;1.79;100.00
25084;BME280;13075;55.682;37.564;2023-02-16T15:21:26;100301.91;;;1.85;100.00
25084;BME280;13075;55.682;37.564;2023-02-16T15:23:57;100305.31;;;1.65;100.00
25084;BME280;13075;55.682;37.564;2023-02-16T15:26:31;100313.44;;;1.42;100.00
25084;BME280;13075;55.682;37.564;2023-02-16T15:29:15;100316.91;;;1.09;100.00
25084;BME280;13075;55.682;37.564;2023-02-16T15:31:44;100312.41;;;1.00;100.00
25084;BME280;13075;55.682;37.564;2023-02-16T15:34:13;100311.41;;;1.23;100.00
25084;BME280;13075;55.682;37.564;2023-02-16T15:36:43;100304.38;;;1.55;100.00
25084;BME280;13075;55.682;37.564;2023-02-16T15:39:15;100311.03;;;1.27;100.00
25084;BME280;13075;55.682;37.564;2023-02-16T15:41:44;100310.19;;;1.27;100.00
25084;BME280;13075;55.682;37.564;2023-02-16T15:44:30;100318.75;;;1.08;100.00
25084;BME280;13075;55.682;37.564;2023-02-16T15:47:09;100316.22;;;0.96;100.00